sensor_id;sensor_type;location;lat;lon;timestamp;temperature;humidity
75170;SHT31;63749;49.186;9.222;2023-02-13T00:00:00;2.63;96.88
75170;SHT31;63749;49.186;9.222;2023-02-13T00:02:25;2.56;96.98
75170;SHT31;63749;49.186;9.222;2023-02-13T00:04:51;2.52;97.12
75170;SHT31;63749;49.186;9.222;2023-02-13T00:07:16;2.46;97.18
75170;SHT31;63749;49.186;9.222;2023-02-13T00:09:42;2.46;97.21
75170;SHT31;63749;49.186;9.222;2023-02-13T00:12:08;2.50;97.06
75170;SHT31;63749;49.186;9.222;2023-02-13T00:14:35;2.48;97.17
75170;SHT31;63749;49.186;9.222;2023-02-13T00:17:01;2.46;96.93
75170;SHT31;63749;49.186;9.222;2023-02-13T00:19:26;2.45;97.01
75170;SHT31;63749;49.186;9.222;2023-02-13T00:21:52;2.42;97.05
75170;SHT31;63749;49.186;9.222;2023-02-13T00:24:19;2.37;97.25
75170;SHT31;63749;49.186;9.222;2023-02-13T00:26:44;2.38;97.34
75170;SHT31;63749;49.186;9.222;2023-02-13T00:29:09;2.28;97.25
75170;SHT31;63749;49.186;9.222;2023-02-13T00:31:35;2.20;97.28
75170;SHT31;63749;49.186;9.222;2023-02-13T00:34:00;2.08;97.27
75170;SHT31;63749;49.186;9.222;2023-02-13T00:36:25;2.00;97.10
75170;SHT31;63749;49.186;9.222;2023-02-13T00:38:52;1.87;97.25
75170;SHT31;63749;49.186;9.222;2023-02-13T00:41:22;1.76;97.11
75170;SHT31;63749;49.186;9.222;2023-02-13T00:43:51;1.64;97.32
75170;SHT31;63749;49.186;9.222;2023-02-13T00:46:16;1.62;97.41
75170;SHT31;63749;49.186;9.222;2023-02-13T00:48:42;1.56;97.48
75170;SHT31;63749;49.186;9.222;2023-02-13T00:51:08;1.53;97.50
75170;SHT31;63749;49.186;9.222;2023-02-13T00:53:34;1.55;97.73
75170;SHT31;63749;49.186;9.222;2023-02-13T00:56:00;1.46;97.53
75170;SHT31;63749;49.186;9.222;2023-02-13T00:58:26;1.46;97.69
75170;SHT31;63749;49.186;9.222;2023-02-13T01:00:52;1.38;97.70
75170;SHT31;63749;49.186;9.222;2023-02-13T01:03:18;1.43;98.10
75170;SHT31;63749;49.186;9.222;2023-02-13T01:05:45;1.50;98.32
75170;SHT31;63749;49.186;9.222;2023-02-13T01:08:11;1.57;98.53
75170;SHT31;63749;49.186;9.222;2023-02-13T01:10:37;1.57;98.46
75170;SHT31;63749;49.186;9.222;2023-02-13T01:13:03;1.80;98.54
75170;SHT31;63749;49.186;9.222;2023-02-13T01:15:28;1.86;98.61
75170;SHT31;63749;49.186;9.222;2023-02-13T01:17:54;1.77;98.46
75170;SHT31;63749;49.186;9.222;2023-02-13T01:20:22;1.77;98.44
75170;SHT31;63749;49.186;9.222;2023-02-13T01:22:47;1.81;98.51
75170;SHT31;63749;49.186;9.222;2023-02-13T01:25:13;1.83;98.56
75170;SHT31;63749;49.186;9.222;2023-02-13T01:27:38;1.77;98.38
75170;SHT31;63749;49.186;9.222;2023-02-13T01:30:05;1.80;98.53
75170;SHT31;63749;49.186;9.222;2023-02-13T01:32:36;1.81;98.54
75170;SHT31;63749;49.186;9.222;2023-02-13T01:35:01;1.87;98.50
75170;SHT31;63749;49.186;9.222;2023-02-13T01:37:26;1.86;98.41
75170;SHT31;63749;49.186;9.222;2023-02-13T01:39:53;1.83;98.33
75170;SHT31;63749;49.186;9.222;2023-02-13T01:42:23;1.88;98.46
75170;SHT31;63749;49.186;9.222;2023-02-13T01:47:27;1.90;98.30
75170;SHT31;63749;49.186;9.222;2023-02-13T01:50:07;1.81;98.19
75170;SHT31;63749;49.186;9.222;2023-02-13T01:52:36;1.70;98.20
75170;SHT31;63749;49.186;9.222;2023-02-13T01:55:04;1.63;98.00
75170;SHT31;63749;49.186;9.222;2023-02-13T01:57:31;1.60;98.00
75170;SHT31;63749;49.186;9.222;2023-02-13T02:00:10;1.56;98.10
75170;SHT31;63749;49.186;9.222;2023-02-13T02:02:40;1.53;98.30
75170;SHT31;63749;49.186;9.222;2023-02-13T02:05:07;1.48;98.27
75170;SHT31;63749;49.186;9.222;2023-02-13T02:07:33;1.43;98.25
75170;SHT31;63749;49.186;9.222;2023-02-13T02:10:03;1.42;98.30
75170;SHT31;63749;49.186;9.222;2023-02-13T02:12:35;1.36;98.29
75170;SHT31;63749;49.186;9.222;2023-02-13T02:15:04;1.38;98.27
75170;SHT31;63749;49.186;9.222;2023-02-13T02:17:29;1.34;98.04
75170;SHT31;63749;49.186;9.222;2023-02-13T02:28:56;1.28;98.23
75170;SHT31;63749;49.186;9.222;2023-02-13T02:37:18;1.18;98.44
75170;SHT31;63749;49.186;9.222;2023-02-13T02:48:10;0.90;98.44
75170;SHT31;63749;49.186;9.222;2023-02-13T02:51:02;0.81;98.46
75170;SHT31;63749;49.186;9.222;2023-02-13T02:53:42;0.85;98.71
75170;SHT31;63749;49.186;9.222;2023-02-13T02:56:32;0.84;98.81
75170;SHT31;63749;49.186;9.222;2023-02-13T02:59:05;0.91;98.99
75170;SHT31;63749;49.186;9.222;2023-02-13T03:01:53;1.04;99.16
75170;SHT31;63749;49.186;9.222;2023-02-13T03:04:45;1.14;99.25
75170;SHT31;63749;49.186;9.222;2023-02-13T03:07:29;1.25;99.27
75170;SHT31;63749;49.186;9.222;2023-02-13T03:10:03;1.34;99.42
75170;SHT31;63749;49.186;9.222;2023-02-13T03:12:50;1.42;99.50
75170;SHT31;63749;49.186;9.222;2023-02-13T03:15:41;1.50;99.48
75170;SHT31;63749;49.186;9.222;2023-02-13T03:18:33;1.55;99.45
75170;SHT31;63749;49.186;9.222;2023-02-13T03:21:40;1.59;99.36
75170;SHT31;63749;49.186;9.222;2023-02-13T03:24:37;1.64;99.30
75170;SHT31;63749;49.186;9.222;2023-02-13T03:29:51;1.74;99.15
75170;SHT31;63749;49.186;9.222;2023-02-13T03:32:44;1.73;99.06
75170;SHT31;63749;49.186;9.222;2023-02-13T03:35:18;1.71;98.96
75170;SHT31;63749;49.186;9.222;2023-02-13T03:38:56;1.76;98.96
75170;SHT31;63749;49.186;9.222;2023-02-13T03:41:05;1.79;98.90
75170;SHT31;63749;49.186;9.222;2023-02-13T03:46:21;1.80;98.84
75170;SHT31;63749;49.186;9.222;2023-02-13T03:48:47;1.83;98.84
75170;SHT31;63749;49.186;9.222;2023-02-13T03:51:57;1.86;98.79
75170;SHT31;63749;49.186;9.222;2023-02-13T03:55:00;1.83;98.66
75170;SHT31;63749;49.186;9.222;2023-02-13T03:57:39;1.84;98.74
75170;SHT31;63749;49.186;9.222;2023-02-13T04:00:28;1.96;98.84
75170;SHT31;63749;49.186;9.222;2023-02-13T04:03:11;1.97;98.68
75170;SHT31;63749;49.186;9.222;2023-02-13T04:05:44;1.97;98.48
75170;SHT31;63749;49.186;9.222;2023-02-13T04:08:10;1.96;98.50
75170;SHT31;63749;49.186;9.222;2023-02-13T04:10:41;1.94;98.34
75170;SHT31;63749;49.186;9.222;2023-02-13T04:16:20;1.88;98.13
75170;SHT31;63749;49.186;9.222;2023-02-13T04:18:43;1.90;98.12
75170;SHT31;63749;49.186;9.222;2023-02-13T04:21:09;1.90;98.11
75170;SHT31;63749;49.186;9.222;2023-02-13T04:23:35;1.88;98.02
75170;SHT31;63749;49.186;9.222;2023-02-13T04:26:06;1.88;97.77
75170;SHT31;63749;49.186;9.222;2023-02-13T04:28:32;1.81;97.62
75170;SHT31;63749;49.186;9.222;2023-02-13T04:30:58;1.74;97.50
75170;SHT31;63749;49.186;9.222;2023-02-13T04:33:23;1.70;97.62
75170;SHT31;63749;49.186;9.222;2023-02-13T04:35:49;1.63;97.46
75170;SHT31;63749;49.186;9.222;2023-02-13T04:38:14;1.66;97.77
75170;SHT31;63749;49.186;9.222;2023-02-13T04:40:40;1.64;97.60
75170;SHT31;63749;49.186;9.222;2023-02-13T04:43:05;1.56;97.59
75170;SHT31;63749;49.186;9.222;2023-02-13T04:45:31;1.55;97.74
75170;SHT31;63749;49.186;9.222;2023-02-13T04:47:57;1.53;97.71
75170;SHT31;63749;49.186;9.222;2023-02-13T04:50:23;1.52;97.77
75170;SHT31;63749;49.186;9.222;2023-02-13T04:52:56;1.53;97.89
75170;SHT31;63749;49.186;9.222;2023-02-13T04:55:23;1.55;97.89
75170;SHT31;63749;49.186;9.222;2023-02-13T04:57:53;1.59;97.82
75170;SHT31;63749;49.186;9.222;2023-02-13T05:00:20;1.52;97.49
75170;SHT31;63749;49.186;9.222;2023-02-13T05:02:45;1.59;97.65
75170;SHT31;63749;49.186;9.222;2023-02-13T05:05:11;1.53;97.53
75170;SHT31;63749;49.186;9.222;2023-02-13T05:07:36;1.52;97.60
75170;SHT31;63749;49.186;9.222;2023-02-13T05:10:02;1.55;97.56
75170;SHT31;63749;49.186;9.222;2023-02-13T05:12:28;1.53;97.47
75170;SHT31;63749;49.186;9.222;2023-02-13T05:14:54;1.48;97.50
75170;SHT31;63749;49.186;9.222;2023-02-13T05:17:19;1.48;97.53
75170;SHT31;63749;49.186;9.222;2023-02-13T05:19:44;1.40;97.50
75170;SHT31;63749;49.186;9.222;2023-02-13T05:22:10;1.38;97.67
75170;SHT31;63749;49.186;9.222;2023-02-13T05:24:54;1.40;97.85
75170;SHT31;63749;49.186;9.222;2023-02-13T05:27:19;1.34;98.01
75170;SHT31;63749;49.186;9.222;2023-02-13T05:29:44;1.29;98.03
75170;SHT31;63749;49.186;9.222;2023-02-13T05:32:10;1.29;97.94
75170;SHT31;63749;49.186;9.222;2023-02-13T05:34:36;1.28;97.91
75170;SHT31;63749;49.186;9.222;2023-02-13T05:37:02;1.22;97.83
75170;SHT31;63749;49.186;9.222;2023-02-13T05:39:27;1.12;97.73
75170;SHT31;63749;49.186;9.222;2023-02-13T05:41:52;1.17;97.80
75170;SHT31;63749;49.186;9.222;2023-02-13T05:44:18;1.08;97.80
75170;SHT31;63749;49.186;9.222;2023-02-13T05:46:44;1.01;98.19
75170;SHT31;63749;49.186;9.222;2023-02-13T05:49:10;1.04;98.16
75170;SHT31;63749;49.186;9.222;2023-02-13T05:51:36;0.95;98.17
75170;SHT31;63749;49.186;9.222;2023-02-13T05:54:02;0.92;98.14
75170;SHT31;63749;49.186;9.222;2023-02-13T05:56:27;0.90;98.29
75170;SHT31;63749;49.186;9.222;2023-02-13T05:58:54;0.91;98.06
75170;SHT31;63749;49.186;9.222;2023-02-13T06:01:21;0.94;98.13
75170;SHT31;63749;49.186;9.222;2023-02-13T06:03:47;0.95;98.05
75170;SHT31;63749;49.186;9.222;2023-02-13T06:06:13;0.87;98.22
75170;SHT31;63749;49.186;9.222;2023-02-13T06:08:39;0.85;98.37
75170;SHT31;63749;49.186;9.222;2023-02-13T06:11:04;0.87;98.26
75170;SHT31;63749;49.186;9.222;2023-02-13T06:13:30;0.83;98.37
75170;SHT31;63749;49.186;9.222;2023-02-13T06:15:55;0.85;98.24
75170;SHT31;63749;49.186;9.222;2023-02-13T06:18:21;0.88;98.02
75170;SHT31;63749;49.186;9.222;2023-02-13T06:20:47;0.91;98.22
75170;SHT31;63749;49.186;9.222;2023-02-13T06:23:12;0.99;98.16
75170;SHT31;63749;49.186;9.222;2023-02-13T06:25:38;1.19;98.08
75170;SHT31;63749;49.186;9.222;2023-02-13T06:28:03;1.15;97.59
75170;SHT31;63749;49.186;9.222;2023-02-13T06:30:29;1.15;97.31
75170;SHT31;63749;49.186;9.222;2023-02-13T06:32:55;1.11;97.13
75170;SHT31;63749;49.186;9.222;2023-02-13T06:35:20;1.15;97.00
75170;SHT31;63749;49.186;9.222;2023-02-13T06:37:45;1.25;97.26
75170;SHT31;63749;49.186;9.222;2023-02-13T06:40:12;1.07;97.28
75170;SHT31;63749;49.186;9.222;2023-02-13T06:42:38;1.02;97.12
75170;SHT31;63749;49.186;9.222;2023-02-13T06:45:05;0.95;97.09
75170;SHT31;63749;49.186;9.222;2023-02-13T06:47:30;1.01;97.07
75170;SHT31;63749;49.186;9.222;2023-02-13T06:49:56;0.99;97.07
75170;SHT31;63749;49.186;9.222;2023-02-13T06:52:21;0.98;96.89
75170;SHT31;63749;49.186;9.222;2023-02-13T06:54:46;0.95;96.62
75170;SHT31;63749;49.186;9.222;2023-02-13T06:57:12;0.99;96.68
75170;SHT31;63749;49.186;9.222;2023-02-13T06:59:37;1.05;96.76
75170;SHT31;63749;49.186;9.222;2023-02-13T07:02:02;1.02;96.65
75170;SHT31;63749;49.186;9.222;2023-02-13T07:04:28;1.01;96.47
75170;SHT31;63749;49.186;9.222;2023-02-13T07:06:54;1.22;96.70
75170;SHT31;63749;49.186;9.222;2023-02-13T07:09:20;1.12;96.03
75170;SHT31;63749;49.186;9.222;2023-02-13T07:11:45;1.05;95.92
75170;SHT31;63749;49.186;9.222;2023-02-13T07:14:10;0.94;95.26
75170;SHT31;63749;49.186;9.222;2023-02-13T07:16:36;0.74;95.25
75170;SHT31;63749;49.186;9.222;2023-02-13T07:19:01;0.66;96.62
75170;SHT31;63749;49.186;9.222;2023-02-13T07:21:26;0.80;97.03
75170;SHT31;63749;49.186;9.222;2023-02-13T07:23:52;0.76;96.56
75170;SHT31;63749;49.186;9.222;2023-02-13T07:26:17;0.76;96.60
75170;SHT31;63749;49.186;9.222;2023-02-13T07:28:43;0.59;96.39
75170;SHT31;63749;49.186;9.222;2023-02-13T07:31:08;0.70;96.81
75170;SHT31;63749;49.186;9.222;2023-02-13T07:33:34;0.83;96.59
75170;SHT31;63749;49.186;9.222;2023-02-13T07:36:00;0.78;95.98
75170;SHT31;63749;49.186;9.222;2023-02-13T07:38:28;0.68;96.30
75170;SHT31;63749;49.186;9.222;2023-02-13T07:40:57;0.70;95.76
75170;SHT31;63749;49.186;9.222;2023-02-13T07:43:22;0.70;96.09
75170;SHT31;63749;49.186;9.222;2023-02-13T07:45:49;0.76;95.51
75170;SHT31;63749;49.186;9.222;2023-02-13T07:48:14;0.63;95.81
75170;SHT31;63749;49.186;9.222;2023-02-13T07:50:39;0.66;96.22
75170;SHT31;63749;49.186;9.222;2023-02-13T07:53:05;0.85;96.59
75170;SHT31;63749;49.186;9.222;2023-02-13T07:55:30;0.98;96.32
75170;SHT31;63749;49.186;9.222;2023-02-13T07:57:59;1.14;96.23
75170;SHT31;63749;49.186;9.222;2023-02-13T08:00:24;1.24;96.05
75170;SHT31;63749;49.186;9.222;2023-02-13T08:02:50;1.22;95.74
75170;SHT31;63749;49.186;9.222;2023-02-13T08:05:15;1.36;95.81
75170;SHT31;63749;49.186;9.222;2023-02-13T08:07:41;1.55;95.04
75170;SHT31;63749;49.186;9.222;2023-02-13T08:10:07;1.64;95.37
75170;SHT31;63749;49.186;9.222;2023-02-13T08:12:52;1.79;93.92
75170;SHT31;63749;49.186;9.222;2023-02-13T08:15:18;1.70;94.03
75170;SHT31;63749;49.186;9.222;2023-02-13T08:17:43;1.60;94.01
75170;SHT31;63749;49.186;9.222;2023-02-13T08:20:09;1.74;94.27
75170;SHT31;63749;49.186;9.222;2023-02-13T08:22:36;1.50;93.99
75170;SHT31;63749;49.186;9.222;2023-02-13T08:25:02;1.66;94.53
75170;SHT31;63749;49.186;9.222;2023-02-13T08:27:27;1.71;93.94
75170;SHT31;63749;49.186;9.222;2023-02-13T08:29:55;1.74;94.41
75170;SHT31;63749;49.186;9.222;2023-02-13T08:32:21;1.79;94.16
75170;SHT31;63749;49.186;9.222;2023-02-13T08:34:46;1.90;94.07
75170;SHT31;63749;49.186;9.222;2023-02-13T08:37:11;2.07;94.45
75170;SHT31;63749;49.186;9.222;2023-02-13T08:39:37;2.22;93.54
75170;SHT31;63749;49.186;9.222;2023-02-13T08:42:02;2.39;92.99
75170;SHT31;63749;49.186;9.222;2023-02-13T08:44:27;2.39;92.82
75170;SHT31;63749;49.186;9.222;2023-02-13T08:46:53;2.38;92.73
75170;SHT31;63749;49.186;9.222;2023-02-13T08:49:18;2.35;92.82
75170;SHT31;63749;49.186;9.222;2023-02-13T08:51:44;2.45;92.22
75170;SHT31;63749;49.186;9.222;2023-02-13T08:54:09;2.35;92.04
75170;SHT31;63749;49.186;9.222;2023-02-13T08:56:34;2.60;92.77
75170;SHT31;63749;49.186;9.222;2023-02-13T08:59:00;2.77;92.35
75170;SHT31;63749;49.186;9.222;2023-02-13T09:01:25;2.99;92.03
75170;SHT31;63749;49.186;9.222;2023-02-13T09:03:51;3.04;91.22
75170;SHT31;63749;49.186;9.222;2023-02-13T09:06:16;3.07;90.89
75170;SHT31;63749;49.186;9.222;2023-02-13T09:08:41;3.24;90.22
75170;SHT31;63749;49.186;9.222;2023-02-13T09:11:08;3.08;90.87
75170;SHT31;63749;49.186;9.222;2023-02-13T09:13:34;3.03;89.97
75170;SHT31;63749;49.186;9.222;2023-02-13T09:16:03;3.17;90.29
75170;SHT31;63749;49.186;9.222;2023-02-13T09:18:29;3.39;90.49
75170;SHT31;63749;49.186;9.222;2023-02-13T09:21:02;3.20;90.53
75170;SHT31;63749;49.186;9.222;2023-02-13T09:23:35;3.55;90.69
75170;SHT31;63749;49.186;9.222;2023-02-13T09:26:02;3.75;89.48
75170;SHT31;63749;49.186;9.222;2023-02-13T09:28:32;3.96;88.96
75170;SHT31;63749;49.186;9.222;2023-02-13T09:30:58;4.23;87.23
75170;SHT31;63749;49.186;9.222;2023-02-13T09:33:25;4.30;87.57
75170;SHT31;63749;49.186;9.222;2023-02-13T09:35:50;4.50;87.29
75170;SHT31;63749;49.186;9.222;2023-02-13T09:38:16;4.51;87.40
75170;SHT31;63749;49.186;9.222;2023-02-13T09:40:52;4.50;87.07
75170;SHT31;63749;49.186;9.222;2023-02-13T09:43:49;4.50;87.18
75170;SHT31;63749;49.186;9.222;2023-02-13T09:46:20;4.57;86.97
75170;SHT31;63749;49.186;9.222;2023-02-13T09:48:49;4.36;87.18
75170;SHT31;63749;49.186;9.222;2023-02-13T09:51:18;4.58;86.34
75170;SHT31;63749;49.186;9.222;2023-02-13T09:53:52;4.27;87.03
75170;SHT31;63749;49.186;9.222;2023-02-13T09:56:26;4.34;87.08
75170;SHT31;63749;49.186;9.222;2023-02-13T09:59:02;4.36;87.23
75170;SHT31;63749;49.186;9.222;2023-02-13T10:01:33;4.26;87.35
75170;SHT31;63749;49.186;9.222;2023-02-13T10:04:11;4.38;86.92
75170;SHT31;63749;49.186;9.222;2023-02-13T10:06:42;4.38;86.53
75170;SHT31;63749;49.186;9.222;2023-02-13T10:17:40;4.91;86.26
75170;SHT31;63749;49.186;9.222;2023-02-13T10:22:55;4.95;85.99
75170;SHT31;63749;49.186;9.222;2023-02-13T10:25:27;5.09;86.19
75170;SHT31;63749;49.186;9.222;2023-02-13T10:28:13;5.29;85.09
75170;SHT31;63749;49.186;9.222;2023-02-13T10:30:57;5.44;84.30
75170;SHT31;63749;49.186;9.222;2023-02-13T10:33:29;5.46;84.54
75170;SHT31;63749;49.186;9.222;2023-02-13T10:36:04;5.53;84.42
75170;SHT31;63749;49.186;9.222;2023-02-13T10:38:33;5.60;84.35
75170;SHT31;63749;49.186;9.222;2023-02-13T10:41:33;5.75;84.37
75170;SHT31;63749;49.186;9.222;2023-02-13T10:50:09;6.26;83.49
75170;SHT31;63749;49.186;9.222;2023-02-13T11:00:56;6.63;81.31
75170;SHT31;63749;49.186;9.222;2023-02-13T11:03:27;6.63;81.23
75170;SHT31;63749;49.186;9.222;2023-02-13T11:05:54;6.62;81.69
75170;SHT31;63749;49.186;9.222;2023-02-13T11:08:31;6.64;80.97
75170;SHT31;63749;49.186;9.222;2023-02-13T11:10:57;6.74;80.91
75170;SHT31;63749;49.186;9.222;2023-02-13T11:13:24;7.12;84.09
75170;SHT31;63749;49.186;9.222;2023-02-13T11:15:59;7.76;82.64
75170;SHT31;63749;49.186;9.222;2023-02-13T11:18:28;7.56;79.14
75170;SHT31;63749;49.186;9.222;2023-02-13T11:20:59;7.70;79.96
75170;SHT31;63749;49.186;9.222;2023-02-13T11:23:33;7.72;79.68
75170;SHT31;63749;49.186;9.222;2023-02-13T11:28:36;8.10;76.36
75170;SHT31;63749;49.186;9.222;2023-02-13T11:33:48;8.07;75.46
75170;SHT31;63749;49.186;9.222;2023-02-13T11:36:16;7.83;75.99
75170;SHT31;63749;49.186;9.222;2023-02-13T11:38:56;7.94;76.34
75170;SHT31;63749;49.186;9.222;2023-02-13T11:41:24;7.87;75.94
75170;SHT31;63749;49.186;9.222;2023-02-13T11:43:53;8.03;76.42
75170;SHT31;63749;49.186;9.222;2023-02-13T11:46:27;8.01;75.62
75170;SHT31;63749;49.186;9.222;2023-02-13T11:49:04;8.08;75.03
75170;SHT31;63749;49.186;9.222;2023-02-13T11:51:41;8.14;74.86
75170;SHT31;63749;49.186;9.222;2023-02-13T11:54:32;8.35;75.01
75170;SHT31;63749;49.186;9.222;2023-02-13T11:56:59;8.45;74.14
75170;SHT31;63749;49.186;9.222;2023-02-13T11:59:28;8.56;73.58
75170;SHT31;63749;49.186;9.222;2023-02-13T12:04:41;8.69;72.62
75170;SHT31;63749;49.186;9.222;2023-02-13T12:07:27;8.72;72.88
75170;SHT31;63749;49.186;9.222;2023-02-13T12:10:04;8.89;72.92
75170;SHT31;63749;49.186;9.222;2023-02-13T12:13:01;8.89;72.89
75170;SHT31;63749;49.186;9.222;2023-02-13T12:15:35;9.10;72.07
75170;SHT31;63749;49.186;9.222;2023-02-13T12:20:29;9.00;71.60
75170;SHT31;63749;49.186;9.222;2023-02-13T12:26:32;9.12;71.20
75170;SHT31;63749;49.186;9.222;2023-02-13T12:29:28;9.20;70.85
75170;SHT31;63749;49.186;9.222;2023-02-13T12:32:13;9.30;70.77
75170;SHT31;63749;49.186;9.222;2023-02-13T12:34:53;9.35;70.15
75170;SHT31;63749;49.186;9.222;2023-02-13T12:37:51;9.43;70.04
75170;SHT31;63749;49.186;9.222;2023-02-13T12:43:30;9.67;69.93
75170;SHT31;63749;49.186;9.222;2023-02-13T12:46:29;9.81;69.61
75170;SHT31;63749;49.186;9.222;2023-02-13T13:00:10;10.16;67.81
75170;SHT31;63749;49.186;9.222;2023-02-13T13:03:10;10.37;68.08
75170;SHT31;63749;49.186;9.222;2023-02-13T13:14:31;10.74;65.89
75170;SHT31;63749;49.186;9.222;2023-02-13T13:17:06;10.87;66.10
75170;SHT31;63749;49.186;9.222;2023-02-13T13:22:31;11.04;65.29
75170;SHT31;63749;49.186;9.222;2023-02-13T13:27:44;11.22;64.61
75170;SHT31;63749;49.186;9.222;2023-02-13T13:30:17;11.67;62.90
75170;SHT31;63749;49.186;9.222;2023-02-13T13:32:47;12.50;60.44
75170;SHT31;63749;49.186;9.222;2023-02-13T13:35:14;13.26;57.44
75170;SHT31;63749;49.186;9.222;2023-02-13T13:37:48;14.36;55.19
75170;SHT31;63749;49.186;9.222;2023-02-13T13:43:05;15.83;49.11
75170;SHT31;63749;49.186;9.222;2023-02-13T13:45:44;16.56;47.43
75170;SHT31;63749;49.186;9.222;2023-02-13T13:51:16;17.93;44.62
75170;SHT31;63749;49.186;9.222;2023-02-13T14:05:17;18.03;44.38
75170;SHT31;63749;49.186;9.222;2023-02-13T14:07:56;18.17;43.13
75170;SHT31;63749;49.186;9.222;2023-02-13T14:18:19;17.34;44.21
75170;SHT31;63749;49.186;9.222;2023-02-13T14:31:21;18.46;42.03
75170;SHT31;63749;49.186;9.222;2023-02-13T14:36:42;18.29;42.21
75170;SHT31;63749;49.186;9.222;2023-02-13T14:44:34;18.36;41.69
75170;SHT31;63749;49.186;9.222;2023-02-13T14:47:04;18.49;41.41
75170;SHT31;63749;49.186;9.222;2023-02-13T14:49:39;18.29;42.22
75170;SHT31;63749;49.186;9.222;2023-02-13T14:52:16;18.47;41.37
75170;SHT31;63749;49.186;9.222;2023-02-13T14:54:48;18.39;41.27
75170;SHT31;63749;49.186;9.222;2023-02-13T14:59:48;18.88;40.54
75170;SHT31;63749;49.186;9.222;2023-02-13T15:02:17;18.40;41.26
75170;SHT31;63749;49.186;9.222;2023-02-13T15:04:48;17.24;43.61
75170;SHT31;63749;49.186;9.222;2023-02-13T15:07:25;17.57;43.32
75170;SHT31;63749;49.186;9.222;2023-02-13T15:10:14;17.86;43.27
75170;SHT31;63749;49.186;9.222;2023-02-13T15:12:42;18.14;42.43
75170;SHT31;63749;49.186;9.222;2023-02-13T15:15:26;17.65;43.34
75170;SHT31;63749;49.186;9.222;2023-02-13T15:17:54;17.24;43.46
75170;SHT31;63749;49.186;9.222;2023-02-13T15:20:26;17.65;42.67
75170;SHT31;63749;49.186;9.222;2023-02-13T15:22:52;17.38;43.59
75170;SHT31;63749;49.186;9.222;2023-02-13T15:25:31;17.34;43.40
75170;SHT31;63749;49.186;9.222;2023-02-13T15:27:58;16.97;44.17
75170;SHT31;63749;49.186;9.222;2023-02-13T15:30:26;16.25;45.95
75170;SHT31;63749;49.186;9.222;2023-02-13T15:32:57;16.71;44.44
75170;SHT31;63749;49.186;9.222;2023-02-13T15:35:24;16.05;46.62
75170;SHT31;63749;49.186;9.222;2023-02-13T15:37:51;16.34;45.79
75170;SHT31;63749;49.186;9.222;2023-02-13T15:40:29;14.47;50.44
75170;SHT31;63749;49.186;9.222;2023-02-13T15:42:56;13.82;52.71
75170;SHT31;63749;49.186;9.222;2023-02-13T15:45:24;13.07;58.63
75170;SHT31;63749;49.186;9.222;2023-02-13T15:47:50;12.53;56.81
75170;SHT31;63749;49.186;9.222;2023-02-13T15:50:28;11.87;60.34
75170;SHT31;63749;49.186;9.222;2023-02-13T15:52:54;11.62;62.13
75170;SHT31;63749;49.186;9.222;2023-02-13T15:55:25;11.46;62.13
75170;SHT31;63749;49.186;9.222;2023-02-13T15:57:52;11.12;62.14
75170;SHT31;63749;49.186;9.222;2023-02-13T16:00:28;10.92;62.69
75170;SHT31;63749;49.186;9.222;2023-02-13T16:02:56;10.70;63.72
75170;SHT31;63749;49.186;9.222;2023-02-13T16:05:23;10.47;65.01
75170;SHT31;63749;49.186;9.222;2023-02-13T16:07:56;10.19;65.49
75170;SHT31;63749;49.186;9.222;2023-02-13T16:10:30;9.96;66.42
75170;SHT31;63749;49.186;9.222;2023-02-13T16:13:04;9.85;66.23
75170;SHT31;63749;49.186;9.222;2023-02-13T16:15:33;9.86;69.61
75170;SHT31;63749;49.186;9.222;2023-02-13T16:17:59;9.64;67.25
75170;SHT31;63749;49.186;9.222;2023-02-13T16:20:27;9.45;67.46
75170;SHT31;63749;49.186;9.222;2023-02-13T16:22:56;9.47;71.33
75170;SHT31;63749;49.186;9.222;2023-02-13T16:25:24;9.41;71.13
75170;SHT31;63749;49.186;9.222;2023-02-13T16:27:52;9.17;68.91
75170;SHT31;63749;49.186;9.222;2023-02-13T16:30:33;8.87;69.04
75170;SHT31;63749;49.186;9.222;2023-02-13T16:35:45;8.61;71.28
75170;SHT31;63749;49.186;9.222;2023-02-13T16:40:49;8.40;72.53
75170;SHT31;63749;49.186;9.222;2023-02-13T16:48:58;7.89;72.32
75170;SHT31;63749;49.186;9.222;2023-02-13T16:51:32;7.94;75.32
75170;SHT31;63749;49.186;9.222;2023-02-13T16:53:59;7.80;73.18
75170;SHT31;63749;49.186;9.222;2023-02-13T16:56:24;7.66;72.81
75170;SHT31;63749;49.186;9.222;2023-02-13T17:01:35;7.65;74.94
75170;SHT31;63749;49.186;9.222;2023-02-13T17:04:41;7.56;73.92
75170;SHT31;63749;49.186;9.222;2023-02-13T17:07:03;7.45;74.69
75170;SHT31;63749;49.186;9.222;2023-02-13T17:09:29;7.24;74.77
75170;SHT31;63749;49.186;9.222;2023-02-13T17:11:54;7.11;74.97
75170;SHT31;63749;49.186;9.222;2023-02-13T17:14:20;7.01;76.09
75170;SHT31;63749;49.186;9.222;2023-02-13T17:16:46;6.80;75.10
75170;SHT31;63749;49.186;9.222;2023-02-13T17:19:12;6.79;75.70
75170;SHT31;63749;49.186;9.222;2023-02-13T17:21:37;6.72;76.14
75170;SHT31;63749;49.186;9.222;2023-02-13T17:24:04;6.69;75.71
75170;SHT31;63749;49.186;9.222;2023-02-13T17:26:29;6.64;77.39
75170;SHT31;63749;49.186;9.222;2023-02-13T17:28:55;6.47;76.42
75170;SHT31;63749;49.186;9.222;2023-02-13T17:31:20;6.32;75.79
75170;SHT31;63749;49.186;9.222;2023-02-13T17:33:46;6.26;75.87
75170;SHT31;63749;49.186;9.222;2023-02-13T17:36:12;6.06;76.40
75170;SHT31;63749;49.186;9.222;2023-02-13T17:38:37;5.99;76.76
75170;SHT31;63749;49.186;9.222;2023-02-13T17:41:04;5.90;77.30
75170;SHT31;63749;49.186;9.222;2023-02-13T17:43:30;5.73;77.74
75170;SHT31;63749;49.186;9.222;2023-02-13T17:45:55;5.64;78.12
75170;SHT31;63749;49.186;9.222;2023-02-13T17:48:20;5.51;78.49
75170;SHT31;63749;49.186;9.222;2023-02-13T17:50:47;5.43;79.26
75170;SHT31;63749;49.186;9.222;2023-02-13T17:53:33;5.33;79.22
75170;SHT31;63749;49.186;9.222;2023-02-13T17:55:59;5.27;79.34
75170;SHT31;63749;49.186;9.222;2023-02-13T17:58:24;5.20;79.90
75170;SHT31;63749;49.186;9.222;2023-02-13T18:00:50;5.19;80.11
75170;SHT31;63749;49.186;9.222;2023-02-13T18:03:15;5.19;80.24
75170;SHT31;63749;49.186;9.222;2023-02-13T18:05:41;5.06;80.56
75170;SHT31;63749;49.186;9.222;2023-02-13T18:08:07;5.05;80.70
75170;SHT31;63749;49.186;9.222;2023-02-13T18:10:35;4.99;80.90
75170;SHT31;63749;49.186;9.222;2023-02-13T18:13:01;5.11;81.20
75170;SHT31;63749;49.186;9.222;2023-02-13T18:15:38;5.09;80.98
75170;SHT31;63749;49.186;9.222;2023-02-13T18:18:03;5.00;81.53
75170;SHT31;63749;49.186;9.222;2023-02-13T18:20:29;4.95;81.62
75170;SHT31;63749;49.186;9.222;2023-02-13T18:22:54;4.81;82.40
75170;SHT31;63749;49.186;9.222;2023-02-13T18:25:20;4.68;83.07
75170;SHT31;63749;49.186;9.222;2023-02-13T18:27:45;4.62;82.85
75170;SHT31;63749;49.186;9.222;2023-02-13T18:30:14;4.50;83.12
75170;SHT31;63749;49.186;9.222;2023-02-13T18:32:40;4.44;83.59
75170;SHT31;63749;49.186;9.222;2023-02-13T18:35:06;4.36;83.63
75170;SHT31;63749;49.186;9.222;2023-02-13T18:37:31;4.34;83.76
75170;SHT31;63749;49.186;9.222;2023-02-13T18:39:57;4.26;84.20
75170;SHT31;63749;49.186;9.222;2023-02-13T18:42:23;4.17;84.45
75170;SHT31;63749;49.186;9.222;2023-02-13T18:44:48;4.11;84.46